WMT411 LATI-LIMF
Flight info
| Callsign | WMT411 |
|---|---|
| Flight time | 1h 38m |
| Altitude | 36000 |
| Route | DIRES DCT PAPIZ DCT LUMAR DCT BANAV DCT VIE DCT LOMED DCT BEROK DCT KALMO/N0354F180 M730 ITCAP |
| Aircraft | A321/M-SDE1E2E3FGIJ1J4RWXY/LB1 |
Departure
| Time | 2026-05-06 06:46 |
|---|---|
| Airport | Tirana International Airport Mother Teresa (LATI) |
Arrival
| Time | 2026-05-06 08:25 |
|---|---|
| Airport | Turin Airport (LIMF) |
| Time | Latitude | Longitude | Altitude | Speed | Heading |
|---|---|---|---|---|---|
| 2026-05-06 06:08 | 41.41949 | 19.71519 | 119 ft | 0 kts | 264° |
| 2026-05-06 06:36 | 41.41950 | 19.71543 | 119 ft | 4 kts | 280° |
| 2026-05-06 06:36 | 41.41940 | 19.71573 | 119 ft | 4 kts | 321° |
| 2026-05-06 06:37 | 41.41922 | 19.71584 | 118 ft | 1 kts | 354° |
| 2026-05-06 06:37 | 41.41918 | 19.71585 | 118 ft | 0 kts | 354° |
| 2026-05-06 06:39 | 41.41938 | 19.71582 | 120 ft | 7 kts | 355° |
| 2026-05-06 06:39 | 41.42016 | 19.71574 | 121 ft | 14 kts | 354° |
| 2026-05-06 06:40 | 41.42111 | 19.71557 | 122 ft | 13 kts | 352° |
| 2026-05-06 06:40 | 41.42198 | 19.71544 | 120 ft | 12 kts | 354° |
| 2026-05-06 06:40 | 41.42278 | 19.71534 | 120 ft | 11 kts | 355° |
| 2026-05-06 06:40 | 41.42357 | 19.71525 | 118 ft | 12 kts | 354° |
| 2026-05-06 06:41 | 41.42447 | 19.71514 | 118 ft | 14 kts | 354° |
| 2026-05-06 06:41 | 41.42551 | 19.71501 | 119 ft | 16 kts | 354° |
| 2026-05-06 06:41 | 41.42649 | 19.71512 | 115 ft | 14 kts | 44° |
| 2026-05-06 06:41 | 41.42671 | 19.71644 | 118 ft | 15 kts | 85° |
| 2026-05-06 06:42 | 41.42677 | 19.71718 | 118 ft | 0 kts | 82° |
| 2026-05-06 06:44 | 41.42683 | 19.71762 | 115 ft | 9 kts | 80° |
| 2026-05-06 06:44 | 41.42683 | 19.71860 | 116 ft | 11 kts | 110° |
| 2026-05-06 06:44 | 41.42614 | 19.71902 | 115 ft | 12 kts | 172° |
| 2026-05-06 06:44 | 41.42595 | 19.71905 | 117 ft | 0 kts | 173° |
| 2026-05-06 06:45 | 41.42594 | 19.71906 | 117 ft | 1 kts | 173° |
| 2026-05-06 06:45 | 41.42562 | 19.71910 | 115 ft | 21 kts | 174° |
| 2026-05-06 06:46 | 41.42128 | 19.71968 | 119 ft | 101 kts | 174° |
| 2026-05-06 06:46 | 41.41209 | 19.72091 | 134 ft | 161 kts | 175° |
| 2026-05-06 06:46 | 41.40060 | 19.72218 | 743 ft | 164 kts | 176° |
| 2026-05-06 06:46 | 41.38924 | 19.72356 | 1488 ft | 166 kts | 174° |
| 2026-05-06 06:47 | 41.37731 | 19.72519 | 1874 ft | 185 kts | 174° |
| 2026-05-06 06:47 | 41.36374 | 19.72708 | 2166 ft | 207 kts | 174° |
| 2026-05-06 06:47 | 41.34860 | 19.72916 | 2414 ft | 231 kts | 174° |
| 2026-05-06 06:47 | 41.33224 | 19.73139 | 2937 ft | 241 kts | 174° |
| 2026-05-06 06:48 | 41.31490 | 19.73373 | 3596 ft | 254 kts | 174° |
| 2026-05-06 06:48 | 41.29723 | 19.73609 | 4475 ft | 257 kts | 175° |
| 2026-05-06 06:48 | 41.27931 | 19.73848 | 5349 ft | 260 kts | 175° |
| 2026-05-06 06:48 | 41.26107 | 19.74000 | 6158 ft | 265 kts | 186° |
| 2026-05-06 06:49 | 41.24398 | 19.73100 | 6848 ft | 271 kts | 220° |
| 2026-05-06 06:49 | 41.23246 | 19.71117 | 7601 ft | 275 kts | 242° |
| 2026-05-06 06:49 | 41.22457 | 19.68793 | 8404 ft | 278 kts | 249° |
| 2026-05-06 06:49 | 41.21787 | 19.66364 | 9227 ft | 282 kts | 250° |
| 2026-05-06 06:50 | 41.21116 | 19.63904 | 10018 ft | 285 kts | 250° |
| 2026-05-06 06:50 | 41.20385 | 19.61394 | 10485 ft | 301 kts | 248° |
| 2026-05-06 06:50 | 41.19550 | 19.58728 | 10700 ft | 324 kts | 247° |
| 2026-05-06 06:50 | 41.18628 | 19.55941 | 11221 ft | 334 kts | 246° |
| 2026-05-06 06:51 | 41.17663 | 19.53121 | 11932 ft | 337 kts | 246° |
| 2026-05-06 06:51 | 41.16675 | 19.50288 | 12671 ft | 340 kts | 245° |
| 2026-05-06 06:51 | 41.15671 | 19.47428 | 13429 ft | 343 kts | 245° |
| 2026-05-06 06:51 | 41.14659 | 19.44553 | 14145 ft | 345 kts | 245° |
| 2026-05-06 06:52 | 41.13641 | 19.41654 | 14815 ft | 347 kts | 246° |
| 2026-05-06 06:52 | 41.12619 | 19.38741 | 15487 ft | 350 kts | 246° |
| 2026-05-06 06:52 | 41.11589 | 19.35805 | 16168 ft | 352 kts | 246° |
| 2026-05-06 06:52 | 41.10555 | 19.32849 | 16830 ft | 354 kts | 246° |
| 2026-05-06 06:53 | 41.09512 | 19.29874 | 17495 ft | 357 kts | 246° |
| 2026-05-06 06:53 | 41.08461 | 19.26887 | 18151 ft | 360 kts | 246° |
| 2026-05-06 06:53 | 41.07396 | 19.23870 | 18734 ft | 362 kts | 246° |
| 2026-05-06 06:53 | 41.06311 | 19.20844 | 19271 ft | 366 kts | 244° |
| 2026-05-06 06:54 | 41.04907 | 19.18006 | 19825 ft | 372 kts | 233° |
| 2026-05-06 06:54 | 41.03175 | 19.15437 | 20360 ft | 376 kts | 230° |
| 2026-05-06 06:54 | 41.01404 | 19.12875 | 20917 ft | 379 kts | 231° |
| 2026-05-06 06:54 | 40.99616 | 19.10290 | 21447 ft | 382 kts | 231° |
| 2026-05-06 06:55 | 40.97810 | 19.07677 | 21966 ft | 386 kts | 231° |
| 2026-05-06 06:55 | 40.96016 | 19.05074 | 22504 ft | 389 kts | 231° |
| 2026-05-06 06:55 | 40.94194 | 19.02411 | 23037 ft | 391 kts | 234° |
| 2026-05-06 06:55 | 40.92744 | 18.99407 | 23530 ft | 387 kts | 249° |
| 2026-05-06 06:56 | 40.91982 | 18.96023 | 23966 ft | 384 kts | 264° |
| 2026-05-06 06:56 | 40.91956 | 18.92465 | 24388 ft | 383 kts | 279° |
| 2026-05-06 06:56 | 40.92652 | 18.89120 | 24781 ft | 385 kts | 294° |
| 2026-05-06 06:56 | 40.94019 | 18.86066 | 25175 ft | 388 kts | 304° |
| 2026-05-06 06:57 | 40.95593 | 18.83144 | 25571 ft | 391 kts | 304° |
| 2026-05-06 06:57 | 40.97174 | 18.80201 | 25963 ft | 394 kts | 304° |
| 2026-05-06 06:57 | 40.98760 | 18.77231 | 26349 ft | 397 kts | 303° |
| 2026-05-06 06:57 | 41.00357 | 18.74234 | 26721 ft | 400 kts | 303° |
| 2026-05-06 06:58 | 41.01966 | 18.71206 | 27089 ft | 403 kts | 303° |
| 2026-05-06 06:58 | 41.03584 | 18.68160 | 27453 ft | 406 kts | 303° |
| 2026-05-06 06:58 | 41.05213 | 18.65088 | 27827 ft | 408 kts | 303° |
| 2026-05-06 06:58 | 41.06850 | 18.62001 | 28200 ft | 411 kts | 303° |
| 2026-05-06 06:59 | 41.08498 | 18.58892 | 28569 ft | 414 kts | 303° |
| 2026-05-06 06:59 | 41.10155 | 18.55761 | 28937 ft | 416 kts | 303° |
| 2026-05-06 06:59 | 41.11826 | 18.52605 | 29301 ft | 419 kts | 303° |
| 2026-05-06 06:59 | 41.13499 | 18.49440 | 29642 ft | 421 kts | 303° |
| 2026-05-06 07:00 | 41.14616 | 18.47321 | 29856 ft | 423 kts | 303° |
| 2026-05-06 07:00 | 41.16304 | 18.44115 | 30193 ft | 425 kts | 303° |
| 2026-05-06 07:00 | 41.18000 | 18.40889 | 30466 ft | 428 kts | 303° |
| 2026-05-06 07:00 | 41.19705 | 18.37642 | 30747 ft | 430 kts | 303° |
| 2026-05-06 07:01 | 41.21421 | 18.34372 | 31045 ft | 432 kts | 303° |
| 2026-05-06 07:01 | 41.23145 | 18.31091 | 31348 ft | 434 kts | 303° |
| 2026-05-06 07:01 | 41.24877 | 18.27794 | 31692 ft | 435 kts | 303° |
| 2026-05-06 07:01 | 41.26605 | 18.24504 | 32137 ft | 433 kts | 302° |
| 2026-05-06 07:02 | 41.28325 | 18.21224 | 32568 ft | 432 kts | 302° |
| 2026-05-06 07:02 | 41.30036 | 18.17953 | 32991 ft | 431 kts | 302° |
| 2026-05-06 07:02 | 41.31741 | 18.14683 | 33404 ft | 430 kts | 302° |
| 2026-05-06 07:02 | 41.33439 | 18.11415 | 33824 ft | 429 kts | 302° |
| 2026-05-06 07:03 | 41.35133 | 18.08158 | 34209 ft | 428 kts | 302° |
| 2026-05-06 07:03 | 41.36824 | 18.04908 | 34566 ft | 426 kts | 302° |
| 2026-05-06 07:03 | 41.38510 | 18.01667 | 34921 ft | 425 kts | 302° |
| 2026-05-06 07:03 | 41.40189 | 17.98437 | 35299 ft | 423 kts | 302° |
| 2026-05-06 07:04 | 41.41860 | 17.95221 | 35673 ft | 422 kts | 302° |
| 2026-05-06 07:04 | 41.43525 | 17.92013 | 35971 ft | 421 kts | 302° |
| 2026-05-06 07:04 | 41.45186 | 17.88808 | 36062 ft | 418 kts | 302° |
| 2026-05-06 07:05 | 41.48466 | 17.82467 | 36057 ft | 414 kts | 302° |
| 2026-05-06 07:05 | 41.51727 | 17.76142 | 36057 ft | 413 kts | 302° |
| 2026-05-06 07:06 | 41.54984 | 17.69813 | 36054 ft | 414 kts | 302° |
| 2026-05-06 07:06 | 41.58238 | 17.63464 | 36054 ft | 414 kts | 301° |
| 2026-05-06 07:07 | 41.61360 | 17.57012 | 36049 ft | 421 kts | 294° |
| 2026-05-06 07:07 | 41.63245 | 17.49540 | 36050 ft | 428 kts | 283° |
| 2026-05-06 07:08 | 41.64781 | 17.41825 | 36048 ft | 430 kts | 283° |
| 2026-05-06 07:08 | 41.66337 | 17.34092 | 36046 ft | 431 kts | 283° |
| 2026-05-06 07:09 | 41.67889 | 17.26338 | 36039 ft | 432 kts | 283° |
| 2026-05-06 07:09 | 41.69426 | 17.18572 | 36041 ft | 432 kts | 283° |
| 2026-05-06 07:10 | 41.70958 | 17.10795 | 36048 ft | 433 kts | 283° |
| 2026-05-06 07:10 | 41.72491 | 17.03007 | 36047 ft | 433 kts | 283° |
| 2026-05-06 07:11 | 41.74028 | 16.95194 | 36049 ft | 434 kts | 283° |
| 2026-05-06 07:11 | 41.75554 | 16.87372 | 36049 ft | 434 kts | 283° |
| 2026-05-06 07:12 | 41.77076 | 16.79540 | 36048 ft | 435 kts | 283° |
| 2026-05-06 07:12 | 41.78598 | 16.71700 | 36051 ft | 435 kts | 283° |
| 2026-05-06 07:13 | 41.80114 | 16.63846 | 36054 ft | 436 kts | 282° |
| 2026-05-06 07:13 | 41.81626 | 16.55976 | 36049 ft | 436 kts | 282° |
| 2026-05-06 07:14 | 41.83130 | 16.48101 | 36043 ft | 436 kts | 282° |
| 2026-05-06 07:14 | 41.84629 | 16.40220 | 36042 ft | 436 kts | 282° |
| 2026-05-06 07:15 | 41.86130 | 16.32337 | 36050 ft | 436 kts | 282° |
| 2026-05-06 07:15 | 41.87622 | 16.24442 | 36043 ft | 436 kts | 282° |
| 2026-05-06 07:16 | 41.89102 | 16.16540 | 36034 ft | 437 kts | 282° |
| 2026-05-06 07:16 | 41.90572 | 16.08684 | 36033 ft | 437 kts | 282° |
| 2026-05-06 07:17 | 41.92973 | 16.01177 | 36028 ft | 443 kts | 298° |
| 2026-05-06 07:17 | 41.96202 | 15.94129 | 36036 ft | 443 kts | 298° |
| 2026-05-06 07:18 | 41.99410 | 15.87064 | 36052 ft | 443 kts | 297° |
| 2026-05-06 07:18 | 42.02634 | 15.79937 | 36046 ft | 443 kts | 297° |
| 2026-05-06 07:19 | 42.05679 | 15.73199 | 36042 ft | 443 kts | 297° |
| 2026-05-06 07:19 | 42.08894 | 15.66061 | 36033 ft | 443 kts | 297° |
| 2026-05-06 07:20 | 42.12083 | 15.58967 | 36027 ft | 443 kts | 297° |
| 2026-05-06 07:20 | 42.15267 | 15.51863 | 36013 ft | 443 kts | 297° |
| 2026-05-06 07:21 | 42.18448 | 15.44755 | 36016 ft | 443 kts | 297° |
| 2026-05-06 07:21 | 42.21603 | 15.37691 | 36009 ft | 442 kts | 297° |
| 2026-05-06 07:22 | 42.24793 | 15.30531 | 36004 ft | 442 kts | 297° |
| 2026-05-06 07:22 | 42.27937 | 15.23462 | 36005 ft | 442 kts | 297° |
| 2026-05-06 07:23 | 42.31093 | 15.16333 | 35994 ft | 442 kts | 296° |
| 2026-05-06 07:23 | 42.34243 | 15.09192 | 35987 ft | 442 kts | 296° |
| 2026-05-06 07:24 | 42.37398 | 15.02048 | 36000 ft | 443 kts | 296° |
| 2026-05-06 07:24 | 42.40550 | 14.94894 | 35993 ft | 443 kts | 296° |
| 2026-05-06 07:25 | 42.43697 | 14.87722 | 36001 ft | 443 kts | 296° |
| 2026-05-06 07:25 | 42.46845 | 14.80548 | 36013 ft | 443 kts | 296° |
| 2026-05-06 07:26 | 42.49988 | 14.73357 | 36001 ft | 443 kts | 296° |
| 2026-05-06 07:26 | 42.53129 | 14.66161 | 35997 ft | 443 kts | 296° |
| 2026-05-06 07:27 | 42.56258 | 14.58958 | 36001 ft | 443 kts | 296° |
| 2026-05-06 07:27 | 42.59383 | 14.51749 | 35995 ft | 443 kts | 296° |
| 2026-05-06 07:28 | 42.62501 | 14.44530 | 35996 ft | 443 kts | 296° |
| 2026-05-06 07:28 | 42.67178 | 14.33685 | 35995 ft | 444 kts | 296° |
| 2026-05-06 07:29 | 42.70292 | 14.26445 | 35995 ft | 444 kts | 296° |
| 2026-05-06 07:29 | 42.73402 | 14.19192 | 36011 ft | 444 kts | 296° |
| 2026-05-06 07:30 | 42.76505 | 14.11939 | 36009 ft | 443 kts | 295° |
| 2026-05-06 07:30 | 42.79596 | 14.04701 | 36001 ft | 442 kts | 295° |
| 2026-05-06 07:31 | 42.82683 | 13.97466 | 35993 ft | 442 kts | 295° |
| 2026-05-06 07:31 | 42.85738 | 13.90273 | 35993 ft | 441 kts | 295° |
| 2026-05-06 07:32 | 42.88805 | 13.83020 | 36012 ft | 441 kts | 295° |
| 2026-05-06 07:32 | 42.91864 | 13.75772 | 36003 ft | 441 kts | 295° |
| 2026-05-06 07:33 | 42.94921 | 13.68512 | 35996 ft | 441 kts | 295° |
| 2026-05-06 07:33 | 42.97974 | 13.61253 | 36000 ft | 441 kts | 295° |
| 2026-05-06 07:34 | 43.01022 | 13.53991 | 35996 ft | 441 kts | 295° |
| 2026-05-06 07:34 | 43.04066 | 13.46729 | 35981 ft | 438 kts | 295° |
| 2026-05-06 07:35 | 43.07073 | 13.39530 | 35967 ft | 435 kts | 294° |
| 2026-05-06 07:35 | 43.10068 | 13.32339 | 35975 ft | 435 kts | 294° |
| 2026-05-06 07:36 | 43.13063 | 13.25122 | 35979 ft | 436 kts | 294° |
| 2026-05-06 07:36 | 43.16049 | 13.17905 | 35980 ft | 436 kts | 294° |
| 2026-05-06 07:37 | 43.19034 | 13.10676 | 35999 ft | 436 kts | 294° |
| 2026-05-06 07:37 | 43.22017 | 13.03433 | 36002 ft | 436 kts | 294° |
| 2026-05-06 07:38 | 43.24989 | 12.96202 | 35998 ft | 435 kts | 294° |
| 2026-05-06 07:38 | 43.27959 | 12.88967 | 35996 ft | 435 kts | 294° |
| 2026-05-06 07:39 | 43.30905 | 12.81766 | 36022 ft | 435 kts | 294° |
| 2026-05-06 07:39 | 43.33736 | 12.74821 | 36002 ft | 434 kts | 294° |
| 2026-05-06 07:40 | 43.36679 | 12.67609 | 35980 ft | 432 kts | 294° |
| 2026-05-06 07:40 | 43.39607 | 12.60390 | 35983 ft | 432 kts | 294° |
| 2026-05-06 07:41 | 43.42538 | 12.53145 | 35986 ft | 434 kts | 293° |
| 2026-05-06 07:41 | 43.45466 | 12.45896 | 35988 ft | 433 kts | 293° |
| 2026-05-06 07:42 | 43.48388 | 12.38642 | 35992 ft | 434 kts | 293° |
| 2026-05-06 07:42 | 43.51323 | 12.31359 | 35992 ft | 435 kts | 293° |
| 2026-05-06 07:43 | 43.54256 | 12.24053 | 35993 ft | 436 kts | 293° |
| 2026-05-06 07:43 | 43.57181 | 12.16721 | 35996 ft | 436 kts | 293° |
| 2026-05-06 07:44 | 43.60108 | 12.09387 | 36015 ft | 436 kts | 293° |
| 2026-05-06 07:44 | 43.63031 | 12.02056 | 36009 ft | 436 kts | 293° |
| 2026-05-06 07:45 | 43.65950 | 11.94700 | 36002 ft | 437 kts | 292° |
| 2026-05-06 07:45 | 43.68374 | 11.88572 | 35997 ft | 438 kts | 292° |
| 2026-05-06 07:46 | 43.71765 | 11.79977 | 35987 ft | 438 kts | 292° |
| 2026-05-06 07:46 | 43.74678 | 11.72576 | 35981 ft | 438 kts | 292° |
| 2026-05-06 07:47 | 43.77119 | 11.66366 | 36011 ft | 438 kts | 292° |
| 2026-05-06 07:47 | 43.80030 | 11.58949 | 35983 ft | 438 kts | 292° |
| 2026-05-06 07:48 | 43.82937 | 11.51518 | 35977 ft | 439 kts | 292° |
| 2026-05-06 07:48 | 43.85833 | 11.44078 | 35965 ft | 439 kts | 292° |
| 2026-05-06 07:49 | 43.88723 | 11.36634 | 35949 ft | 438 kts | 292° |
| 2026-05-06 07:49 | 43.91608 | 11.29193 | 35994 ft | 439 kts | 291° |
| 2026-05-06 07:50 | 43.94480 | 11.21774 | 35931 ft | 436 kts | 291° |
| 2026-05-06 07:50 | 43.97343 | 11.14351 | 35943 ft | 436 kts | 291° |
| 2026-05-06 07:51 | 44.00175 | 11.06985 | 35938 ft | 435 kts | 291° |
| 2026-05-06 07:51 | 44.02874 | 10.99490 | 35949 ft | 429 kts | 284° |
| 2026-05-06 07:52 | 44.04606 | 10.91597 | 35960 ft | 427 kts | 281° |
| 2026-05-06 07:52 | 44.06306 | 10.83672 | 35974 ft | 428 kts | 280° |
| 2026-05-06 07:53 | 44.08003 | 10.75727 | 35976 ft | 429 kts | 280° |
| 2026-05-06 07:53 | 44.09690 | 10.67778 | 35981 ft | 428 kts | 280° |
| 2026-05-06 07:54 | 44.11377 | 10.59826 | 35983 ft | 428 kts | 280° |
| 2026-05-06 07:54 | 44.13053 | 10.51885 | 35989 ft | 426 kts | 280° |
| 2026-05-06 07:55 | 44.14712 | 10.43968 | 35978 ft | 426 kts | 279° |
| 2026-05-06 07:55 | 44.16369 | 10.36040 | 35962 ft | 427 kts | 280° |
| 2026-05-06 07:56 | 44.18032 | 10.28103 | 35952 ft | 427 kts | 280° |
| 2026-05-06 07:56 | 44.19699 | 10.20163 | 35983 ft | 427 kts | 279° |
| 2026-05-06 07:57 | 44.21351 | 10.12256 | 35920 ft | 423 kts | 279° |
| 2026-05-06 07:57 | 44.22977 | 10.04373 | 35925 ft | 423 kts | 279° |
| 2026-05-06 07:58 | 44.24596 | 9.96492 | 35928 ft | 423 kts | 279° |
| 2026-05-06 07:58 | 44.26226 | 9.88591 | 35928 ft | 424 kts | 279° |
| 2026-05-06 07:59 | 44.27846 | 9.80685 | 35953 ft | 424 kts | 278° |
| 2026-05-06 07:59 | 44.29466 | 9.72748 | 35934 ft | 426 kts | 278° |
| 2026-05-06 08:00 | 44.31081 | 9.64799 | 35923 ft | 426 kts | 278° |
| 2026-05-06 08:00 | 44.32693 | 9.56855 | 35560 ft | 423 kts | 278° |
| 2026-05-06 08:01 | 44.33491 | 9.52907 | 34844 ft | 423 kts | 278° |
| 2026-05-06 08:01 | 44.34286 | 9.48954 | 34184 ft | 422 kts | 278° |
| 2026-05-06 08:01 | 44.35081 | 9.45028 | 33605 ft | 419 kts | 277° |
| 2026-05-06 08:01 | 44.35874 | 9.41116 | 32975 ft | 417 kts | 277° |
| 2026-05-06 08:02 | 44.36648 | 9.37293 | 32373 ft | 411 kts | 277° |
| 2026-05-06 08:02 | 44.37416 | 9.33504 | 31263 ft | 402 kts | 277° |
| 2026-05-06 08:02 | 44.38170 | 9.29767 | 30137 ft | 396 kts | 277° |
| 2026-05-06 08:02 | 44.38905 | 9.26093 | 28871 ft | 393 kts | 277° |
| 2026-05-06 08:03 | 44.39635 | 9.22403 | 28252 ft | 390 kts | 277° |
| 2026-05-06 08:03 | 44.40357 | 9.18780 | 27883 ft | 382 kts | 277° |
| 2026-05-06 08:03 | 44.41065 | 9.15235 | 27470 ft | 376 kts | 277° |
| 2026-05-06 08:03 | 44.41759 | 9.11741 | 27047 ft | 369 kts | 277° |
| 2026-05-06 08:04 | 44.42441 | 9.08303 | 26658 ft | 365 kts | 277° |
| 2026-05-06 08:04 | 44.43089 | 9.04894 | 26222 ft | 360 kts | 276° |
| 2026-05-06 08:04 | 44.43695 | 9.01523 | 25831 ft | 355 kts | 275° |
| 2026-05-06 08:04 | 44.44275 | 8.98183 | 25435 ft | 352 kts | 275° |
| 2026-05-06 08:05 | 44.44846 | 8.94866 | 25035 ft | 349 kts | 275° |
| 2026-05-06 08:05 | 44.45418 | 8.91568 | 24637 ft | 348 kts | 276° |
| 2026-05-06 08:05 | 44.45990 | 8.88289 | 24233 ft | 346 kts | 276° |
| 2026-05-06 08:05 | 44.46561 | 8.85027 | 23830 ft | 344 kts | 276° |
| 2026-05-06 08:06 | 44.47130 | 8.81782 | 23412 ft | 343 kts | 276° |
| 2026-05-06 08:06 | 44.47698 | 8.78546 | 22946 ft | 341 kts | 276° |
| 2026-05-06 08:06 | 44.48256 | 8.75347 | 22538 ft | 337 kts | 276° |
| 2026-05-06 08:06 | 44.48812 | 8.72166 | 22114 ft | 334 kts | 276° |
| 2026-05-06 08:07 | 44.49361 | 8.69025 | 21703 ft | 330 kts | 276° |
| 2026-05-06 08:07 | 44.49903 | 8.65911 | 21278 ft | 328 kts | 276° |
| 2026-05-06 08:07 | 44.50438 | 8.62827 | 20859 ft | 324 kts | 276° |
| 2026-05-06 08:07 | 44.50966 | 8.59774 | 20447 ft | 321 kts | 276° |
| 2026-05-06 08:08 | 44.51489 | 8.56741 | 20030 ft | 319 kts | 276° |
| 2026-05-06 08:08 | 44.52007 | 8.53741 | 19620 ft | 315 kts | 276° |
| 2026-05-06 08:08 | 44.52521 | 8.50770 | 19214 ft | 313 kts | 277° |
| 2026-05-06 08:08 | 44.53034 | 8.47802 | 18807 ft | 312 kts | 277° |
| 2026-05-06 08:09 | 44.53542 | 8.44847 | 18400 ft | 312 kts | 277° |
| 2026-05-06 08:09 | 44.54050 | 8.41892 | 17972 ft | 311 kts | 277° |
| 2026-05-06 08:09 | 44.54556 | 8.38946 | 17543 ft | 310 kts | 277° |
| 2026-05-06 08:09 | 44.55059 | 8.36020 | 17140 ft | 308 kts | 277° |
| 2026-05-06 08:10 | 44.55556 | 8.33113 | 16760 ft | 305 kts | 278° |
| 2026-05-06 08:10 | 44.56046 | 8.30218 | 16339 ft | 304 kts | 278° |
| 2026-05-06 08:10 | 44.56536 | 8.27343 | 15951 ft | 302 kts | 278° |
| 2026-05-06 08:10 | 44.57023 | 8.24488 | 15574 ft | 300 kts | 278° |
| 2026-05-06 08:11 | 44.57609 | 8.21687 | 15492 ft | 304 kts | 287° |
| 2026-05-06 08:11 | 44.58653 | 8.19066 | 15173 ft | 315 kts | 300° |
| 2026-05-06 08:11 | 44.60080 | 8.16706 | 14690 ft | 321 kts | 306° |
| 2026-05-06 08:11 | 44.61548 | 8.14383 | 14380 ft | 316 kts | 306° |
| 2026-05-06 08:12 | 44.63001 | 8.12076 | 14017 ft | 314 kts | 306° |
| 2026-05-06 08:12 | 44.64437 | 8.09775 | 13695 ft | 311 kts | 305° |
| 2026-05-06 08:12 | 44.65833 | 8.07524 | 13570 ft | 300 kts | 305° |
| 2026-05-06 08:12 | 44.67177 | 8.05349 | 13401 ft | 291 kts | 305° |
| 2026-05-06 08:13 | 44.68492 | 8.03220 | 13117 ft | 286 kts | 305° |
| 2026-05-06 08:13 | 44.69796 | 8.01109 | 12779 ft | 284 kts | 305° |
| 2026-05-06 08:13 | 44.71087 | 7.99017 | 12444 ft | 282 kts | 305° |
| 2026-05-06 08:13 | 44.72365 | 7.96942 | 12115 ft | 280 kts | 306° |
| 2026-05-06 08:14 | 44.73635 | 7.94881 | 11800 ft | 277 kts | 307° |
| 2026-05-06 08:14 | 44.74792 | 7.92745 | 11511 ft | 271 kts | 294° |
| 2026-05-06 08:14 | 44.75405 | 7.90302 | 11165 ft | 263 kts | 275° |
| 2026-05-06 08:14 | 44.75422 | 7.87773 | 10825 ft | 257 kts | 258° |
| 2026-05-06 08:15 | 44.74907 | 7.85385 | 10482 ft | 255 kts | 247° |
| 2026-05-06 08:15 | 44.74302 | 7.83221 | 10174 ft | 254 kts | 247° |
| 2026-05-06 08:15 | 44.73672 | 7.80970 | 9546 ft | 251 kts | 247° |
| 2026-05-06 08:15 | 44.73045 | 7.78688 | 8809 ft | 250 kts | 252° |
| 2026-05-06 08:16 | 44.72849 | 7.76328 | 8538 ft | 243 kts | 272° |
| 2026-05-06 08:16 | 44.73277 | 7.73996 | 8430 ft | 251 kts | 294° |
| 2026-05-06 08:16 | 44.74316 | 7.71992 | 8252 ft | 258 kts | 311° |
| 2026-05-06 08:16 | 44.75571 | 7.70176 | 7955 ft | 258 kts | 311° |
| 2026-05-06 08:17 | 44.76827 | 7.68368 | 7764 ft | 258 kts | 311° |
| 2026-05-06 08:17 | 44.78081 | 7.66557 | 7473 ft | 260 kts | 311° |
| 2026-05-06 08:17 | 44.79328 | 7.64753 | 7314 ft | 252 kts | 312° |
| 2026-05-06 08:17 | 44.80690 | 7.63286 | 7212 ft | 244 kts | 332° |
| 2026-05-06 08:18 | 44.82301 | 7.62617 | 7027 ft | 244 kts | 353° |
| 2026-05-06 08:18 | 44.83990 | 7.62663 | 6770 ft | 242 kts | 2° |
| 2026-05-06 08:18 | 44.85662 | 7.62782 | 6526 ft | 239 kts | 1° |
| 2026-05-06 08:18 | 44.87318 | 7.62893 | 6285 ft | 238 kts | 1° |
| 2026-05-06 08:19 | 44.88966 | 7.62999 | 6041 ft | 236 kts | 1° |
| 2026-05-06 08:19 | 44.90604 | 7.63102 | 5803 ft | 234 kts | 1° |
| 2026-05-06 08:19 | 44.92231 | 7.63204 | 5573 ft | 233 kts | 2° |
| 2026-05-06 08:19 | 44.93841 | 7.63305 | 5342 ft | 231 kts | 2° |
| 2026-05-06 08:20 | 44.95431 | 7.63405 | 5098 ft | 227 kts | 2° |
| 2026-05-06 08:20 | 44.96974 | 7.63502 | 4890 ft | 218 kts | 2° |
| 2026-05-06 08:20 | 44.98463 | 7.63596 | 4666 ft | 212 kts | 3° |
| 2026-05-06 08:20 | 44.99929 | 7.63688 | 4540 ft | 211 kts | 4° |
| 2026-05-06 08:21 | 45.01396 | 7.63781 | 4325 ft | 210 kts | 3° |
| 2026-05-06 08:21 | 45.02834 | 7.63871 | 4075 ft | 209 kts | 3° |
| 2026-05-06 08:21 | 45.04298 | 7.63964 | 3810 ft | 207 kts | 3° |
| 2026-05-06 08:21 | 45.05715 | 7.64053 | 3550 ft | 206 kts | 2° |
| 2026-05-06 08:22 | 45.07138 | 7.64143 | 3312 ft | 204 kts | 3° |
| 2026-05-06 08:22 | 45.08554 | 7.64233 | 3042 ft | 203 kts | 3° |
| 2026-05-06 08:22 | 45.09964 | 7.64322 | 2772 ft | 202 kts | 2° |
| 2026-05-06 08:22 | 45.11366 | 7.64411 | 2499 ft | 201 kts | 3° |
| 2026-05-06 08:23 | 45.12755 | 7.64499 | 2244 ft | 197 kts | 3° |
| 2026-05-06 08:23 | 45.14062 | 7.64582 | 2002 ft | 176 kts | 2° |
| 2026-05-06 08:23 | 45.15192 | 7.64654 | 1743 ft | 152 kts | 1° |
| 2026-05-06 08:23 | 45.16210 | 7.64718 | 1527 ft | 143 kts | 1° |
| 2026-05-06 08:24 | 45.17187 | 7.64780 | 1323 ft | 139 kts | 359° |
| 2026-05-06 08:24 | 45.18151 | 7.64835 | 1118 ft | 138 kts | 359° |
| 2026-05-06 08:24 | 45.19094 | 7.64902 | 962 ft | 131 kts | 0° |
| 2026-05-06 08:24 | 45.19839 | 7.64945 | 970 ft | 84 kts | 2° |
| 2026-05-06 08:25 | 45.20256 | 7.64971 | 983 ft | 43 kts | 3° |
| 2026-05-06 08:25 | 45.20531 | 7.65000 | 996 ft | 35 kts | 2° |
| 2026-05-06 08:25 | 45.20753 | 7.65010 | 997 ft | 24 kts | 0° |
| 2026-05-06 08:25 | 45.20860 | 7.64940 | 996 ft | 16 kts | 301° |
| 2026-05-06 08:26 | 45.20862 | 7.64801 | 999 ft | 14 kts | 235° |
| 2026-05-06 08:26 | 45.20778 | 7.64739 | 995 ft | 13 kts | 185° |
| 2026-05-06 08:26 | 45.20688 | 7.64733 | 997 ft | 13 kts | 181° |
| 2026-05-06 08:26 | 45.20591 | 7.64732 | 995 ft | 15 kts | 180° |
| 2026-05-06 08:27 | 45.20480 | 7.64731 | 997 ft | 17 kts | 180° |
| 2026-05-06 08:27 | 45.20361 | 7.64729 | 991 ft | 18 kts | 183° |
| 2026-05-06 08:27 | 45.20225 | 7.64719 | 980 ft | 22 kts | 182° |
| 2026-05-06 08:27 | 45.20097 | 7.64702 | 980 ft | 18 kts | 184° |
| 2026-05-06 08:28 | 45.19966 | 7.64690 | 976 ft | 20 kts | 182° |
| 2026-05-06 08:28 | 45.19825 | 7.64678 | 966 ft | 19 kts | 183° |
| 2026-05-06 08:28 | 45.19722 | 7.64679 | 967 ft | 8 kts | 223° |
| 2026-05-06 08:28 | 45.19707 | 7.64615 | 962 ft | 6 kts | 256° |
| 2026-05-06 08:29 | 45.19684 | 7.64558 | 962 ft | 8 kts | 222° |
| 2026-05-06 08:29 | 45.19619 | 7.64549 | 965 ft | 6 kts | 142° |
| 2026-05-06 08:29 | 45.19616 | 7.64594 | 967 ft | 6 kts | 91° |
| 2026-05-06 08:29 | 45.19616 | 7.64600 | 967 ft | 0 kts | 91° |